createdAt,value
2023-03-22T00:01:43.261Z,71.14
2023-03-22T00:04:11.384Z,71.15
2023-03-22T00:06:39.259Z,71.22
2023-03-22T00:09:07.008Z,71.26
2023-03-22T00:11:35.424Z,71.33
2023-03-22T00:14:03.443Z,71.53
2023-03-22T00:16:31.279Z,71.66
2023-03-22T00:18:58.984Z,71.55
2023-03-22T00:21:26.859Z,71.98
2023-03-22T00:23:54.579Z,72.19
2023-03-22T00:26:22.349Z,72.16
2023-03-22T00:28:50.388Z,71.65
2023-03-22T00:31:20.027Z,71.71
2023-03-22T00:33:47.884Z,72.27
2023-03-22T00:36:15.669Z,72.12
2023-03-22T00:38:44.531Z,72.29
2023-03-22T00:41:19.325Z,72.49
2023-03-22T00:43:48.204Z,72.69
2023-03-22T00:46:17.746Z,72.43
2023-03-22T00:48:46.206Z,72.42
2023-03-22T00:51:15.601Z,72.53
2023-03-22T00:53:44.752Z,72.48
2023-03-22T00:56:15.964Z,72.70
2023-03-22T00:58:57.745Z,72.61
2023-03-22T01:01:25.980Z,73.06
2023-03-22T01:03:56.137Z,72.81
2023-03-22T01:06:24.009Z,72.80
2023-03-22T01:08:55.328Z,72.72
2023-03-22T01:11:23.318Z,72.92
2023-03-22T01:13:51.510Z,72.71
2023-03-22T01:16:19.558Z,72.62
2023-03-22T01:18:48.154Z,72.52
2023-03-22T01:21:16.142Z,72.60
2023-03-22T01:23:44.138Z,72.70
2023-03-22T01:26:12.797Z,72.76
2023-03-22T01:28:40.742Z,72.90
2023-03-22T01:31:08.679Z,72.97
2023-03-22T01:33:36.814Z,72.94
2023-03-22T01:36:05.060Z,72.89
2023-03-22T01:38:35.102Z,72.93
2023-03-22T01:41:03.204Z,72.75
2023-03-22T01:43:34.536Z,72.71
2023-03-22T01:46:02.564Z,72.74
2023-03-22T01:48:37.564Z,72.73
2023-03-22T01:51:20.674Z,72.71
2023-03-22T01:54:22.640Z,72.58
2023-03-22T01:56:51.603Z,72.87
2023-03-22T01:59:29.770Z,72.86
2023-03-22T02:02:22.494Z,72.98
2023-03-22T02:05:01.848Z,72.93
2023-03-22T02:07:31.958Z,72.63
2023-03-22T02:10:02.275Z,72.73
2023-03-22T02:13:09.528Z,72.63
2023-03-22T02:16:12.604Z,72.86
2023-03-22T02:19:05.672Z,72.66
2023-03-22T02:22:10.348Z,72.89
2023-03-22T02:24:55.632Z,73.04
2023-03-22T02:27:31.754Z,73.37
2023-03-22T02:30:36.399Z,73.41
2023-03-22T02:33:41.881Z,73.28
2023-03-22T02:36:16.700Z,73.23
2023-03-22T02:39:06.853Z,73.47
2023-03-22T02:41:56.198Z,73.46
2023-03-22T02:44:27.243Z,73.41
2023-03-22T02:47:06.383Z,73.45
2023-03-22T02:50:23.811Z,73.40
2023-03-22T02:53:06.099Z,73.41
2023-03-22T02:55:42.737Z,73.43
2023-03-22T02:58:22.113Z,73.47
2023-03-22T03:00:56.657Z,73.43
2023-03-22T03:03:29.481Z,73.36
2023-03-22T03:06:03.775Z,73.60
2023-03-22T03:08:32.365Z,74.12
2023-03-22T03:11:01.925Z,74.14
2023-03-22T03:13:30.945Z,73.96
2023-03-22T03:16:03.027Z,73.82
2023-03-22T03:18:35.169Z,73.80
2023-03-22T03:21:15.043Z,73.54
2023-03-22T03:23:57.910Z,73.47
2023-03-22T03:26:39.652Z,73.62
2023-03-22T03:29:25.598Z,73.51
2023-03-22T03:32:21.585Z,73.35
2023-03-22T03:34:57.990Z,73.26
2023-03-22T03:37:39.510Z,73.36
2023-03-22T03:40:33.924Z,73.74
2023-03-22T03:43:05.142Z,73.66
2023-03-22T03:45:36.030Z,73.52
2023-03-22T03:48:08.379Z,73.41
2023-03-22T03:50:38.604Z,73.62
2023-03-22T03:53:07.060Z,73.56
2023-03-22T03:55:34.980Z,73.63
2023-03-22T03:58:02.897Z,74.04
2023-03-22T04:00:31.180Z,73.96
2023-03-22T04:03:21.528Z,73.74
2023-03-22T04:06:18.595Z,73.59
2023-03-22T04:08:53.765Z,73.43
2023-03-22T04:11:25.877Z,73.44
2023-03-22T04:13:58.202Z,73.56
2023-03-22T04:16:26.021Z,73.54
2023-03-22T04:18:54.485Z,73.83
2023-03-22T04:21:22.858Z,73.89
2023-03-22T04:24:02.336Z,74.23
2023-03-22T04:26:35.663Z,74.05
2023-03-22T04:29:36.640Z,74.08
2023-03-22T04:32:27.688Z,74.08
2023-03-22T04:34:56.996Z,74.20
2023-03-22T04:37:27.074Z,74.16
2023-03-22T04:40:17.340Z,74.40
2023-03-22T04:43:04.180Z,74.55
2023-03-22T04:46:01.837Z,74.54
2023-03-22T04:48:39.286Z,74.39
2023-03-22T04:51:10.190Z,74.25
2023-03-22T04:53:43.451Z,74.33
2023-03-22T04:56:14.957Z,74.18
2023-03-22T04:58:45.249Z,74.12
2023-03-22T05:01:16.211Z,73.87
2023-03-22T05:03:47.421Z,73.81
2023-03-22T05:06:18.699Z,73.71
2023-03-22T05:08:57.197Z,73.57
2023-03-22T05:11:28.234Z,73.67
2023-03-22T05:14:19.482Z,73.93
2023-03-22T05:16:47.463Z,73.67
2023-03-22T05:19:15.521Z,73.50
2023-03-22T05:21:47.939Z,73.36
2023-03-22T05:24:16.072Z,73.27
2023-03-22T05:26:53.869Z,73.35
2023-03-22T05:29:24.638Z,73.20
2023-03-22T05:32:07.395Z,72.95
2023-03-22T05:34:38.047Z,72.78
2023-03-22T05:37:22.419Z,72.54
2023-03-22T05:39:56.170Z,72.52
2023-03-22T05:42:32.750Z,72.54
2023-03-22T05:45:03.719Z,72.68
2023-03-22T05:47:31.784Z,72.69
2023-03-22T05:50:12.302Z,72.86
2023-03-22T05:52:40.278Z,72.71
2023-03-22T05:55:34.524Z,72.46
2023-03-22T05:58:05.738Z,72.47
2023-03-22T06:00:36.807Z,72.52
2023-03-22T06:03:24.036Z,72.76
2023-03-22T06:06:01.114Z,72.73
2023-03-22T06:08:51.841Z,72.61
2023-03-22T06:11:19.568Z,72.43
2023-03-22T06:13:47.644Z,72.45
2023-03-22T06:16:16.849Z,71.85
2023-03-22T06:18:45.114Z,71.64
2023-03-22T06:21:13.699Z,71.28
2023-03-22T06:23:43.721Z,71.52
2023-03-22T06:26:12.489Z,70.98
2023-03-22T06:28:42.313Z,71.26
2023-03-22T06:31:11.646Z,70.92
2023-03-22T06:33:59.747Z,70.93
2023-03-22T06:36:33.829Z,70.87
2023-03-22T06:39:24.791Z,70.53
2023-03-22T06:41:53.903Z,70.39
2023-03-22T06:44:22.714Z,70.03
2023-03-22T06:46:53.715Z,69.31
2023-03-22T06:49:59.596Z,67.26
2023-03-22T06:52:42.972Z,66.06
2023-03-22T06:55:10.968Z,67.27
2023-03-22T06:57:38.820Z,68.36
2023-03-22T07:00:07.318Z,68.49
2023-03-22T07:02:36.468Z,68.91
2023-03-22T07:05:22.825Z,69.15
2023-03-22T07:07:50.817Z,69.56
2023-03-22T07:10:18.874Z,69.30
2023-03-22T07:12:46.652Z,69.29
2023-03-22T07:15:17.761Z,69.77
2023-03-22T07:17:54.376Z,69.63
2023-03-22T07:20:22.743Z,68.90
2023-03-22T07:22:52.018Z,68.67
2023-03-22T07:25:22.140Z,68.77
2023-03-22T07:27:56.793Z,68.58
2023-03-22T07:30:24.725Z,68.29
2023-03-22T07:32:53.778Z,68.90
2023-03-22T07:35:21.532Z,68.80
2023-03-22T07:37:50.288Z,68.50
2023-03-22T07:40:24.601Z,68.95
2023-03-22T07:42:55.924Z,69.18
2023-03-22T07:45:55.510Z,68.79
2023-03-22T07:48:43.780Z,69.29
2023-03-22T07:51:34.403Z,68.65
2023-03-22T07:54:02.952Z,68.67
2023-03-22T07:56:31.499Z,68.37
2023-03-22T07:58:59.299Z,67.81
2023-03-22T08:01:27.118Z,68.03
2023-03-22T08:04:17.370Z,67.41
2023-03-22T08:06:55.022Z,66.88
2023-03-22T08:09:23.067Z,66.81
2023-03-22T08:11:51.530Z,65.99
2023-03-22T08:14:30.580Z,66.34
2023-03-22T08:17:02.355Z,66.03
2023-03-22T08:19:30.461Z,66.35
2023-03-22T08:21:58.394Z,66.49
2023-03-22T08:24:46.068Z,66.81
2023-03-22T08:27:24.630Z,66.90
2023-03-22T08:29:52.803Z,66.36
2023-03-22T08:32:21.008Z,67.08
2023-03-22T08:34:48.893Z,65.74
2023-03-22T08:37:16.769Z,65.42
2023-03-22T08:39:46.567Z,64.86
2023-03-22T08:42:22.097Z,65.10
2023-03-22T08:44:52.073Z,65.17
2023-03-22T08:47:22.016Z,64.57
2023-03-22T08:49:53.942Z,64.04
2023-03-22T08:52:34.931Z,63.02
2023-03-22T08:55:20.909Z,64.15
2023-03-22T08:58:07.617Z,63.57
2023-03-22T09:00:54.261Z,63.90
2023-03-22T09:03:45.583Z,64.27
2023-03-22T09:06:14.733Z,64.32
2023-03-22T09:08:44.250Z,64.34
2023-03-22T09:11:17.697Z,64.63
2023-03-22T09:13:48.672Z,64.68
2023-03-22T09:16:17.148Z,64.56
2023-03-22T09:18:46.239Z,64.22
2023-03-22T09:21:18.077Z,63.71
2023-03-22T09:24:05.067Z,63.57
2023-03-22T09:26:47.035Z,62.87
2023-03-22T09:29:17.511Z,62.52
2023-03-22T09:31:49.220Z,62.34
2023-03-22T09:34:21.075Z,61.40
2023-03-22T09:36:49.586Z,60.15
2023-03-22T09:39:22.705Z,60.70
2023-03-22T09:41:59.725Z,60.77
2023-03-22T09:44:34.736Z,61.30
2023-03-22T09:47:07.506Z,60.44
2023-03-22T09:49:52.589Z,60.96
2023-03-22T09:52:22.005Z,60.45
2023-03-22T09:54:52.602Z,60.97
2023-03-22T09:57:35.178Z,60.23
2023-03-22T10:00:52.426Z,59.07
2023-03-22T10:03:43.535Z,58.85
2023-03-22T10:06:32.131Z,58.83
2023-03-22T10:09:19.492Z,59.55
2023-03-22T10:12:12.796Z,59.59
2023-03-22T10:14:50.369Z,59.37
2023-03-22T10:17:27.259Z,59.05
2023-03-22T10:20:13.751Z,59.23
2023-03-22T10:22:46.155Z,59.11
2023-03-22T10:25:21.695Z,59.77
2023-03-22T10:27:52.277Z,59.54
2023-03-22T10:30:33.142Z,58.64
2023-03-22T10:33:10.878Z,58.82
2023-03-22T10:35:39.890Z,58.28
2023-03-22T10:38:19.816Z,58.82
2023-03-22T10:40:51.180Z,58.80
2023-03-22T10:43:33.920Z,58.21
2023-03-22T10:46:07.343Z,58.39
2023-03-22T10:48:43.673Z,58.34
2023-03-22T10:51:22.608Z,57.67
2023-03-22T10:53:55.096Z,58.46
2023-03-22T10:56:23.102Z,58.18
2023-03-22T10:58:52.172Z,58.22
2023-03-22T11:01:32.878Z,59.03
2023-03-22T11:04:14.067Z,58.68
2023-03-22T11:06:53.943Z,58.17
2023-03-22T11:09:24.795Z,58.39
2023-03-22T11:12:01.575Z,58.27
2023-03-22T11:14:41.709Z,58.25
2023-03-22T11:17:17.229Z,59.00
2023-03-22T11:20:01.983Z,58.48
2023-03-22T11:22:49.606Z,57.51
2023-03-22T11:25:30.568Z,57.82
2023-03-22T11:28:17.072Z,57.72
2023-03-22T11:31:02.713Z,58.15
2023-03-22T11:33:31.866Z,57.64
2023-03-22T11:36:03.556Z,57.28
2023-03-22T11:38:38.885Z,57.85
2023-03-22T11:41:26.313Z,58.86
2023-03-22T11:44:06.608Z,58.85
2023-03-22T11:46:36.812Z,59.12
2023-03-22T11:49:17.961Z,58.16
2023-03-22T11:51:46.821Z,57.61
2023-03-22T11:54:26.535Z,58.24
2023-03-22T11:56:58.384Z,58.92
2023-03-22T11:59:48.797Z,57.94
2023-03-22T12:02:28.572Z,58.49
2023-03-22T12:05:15.129Z,59.13
2023-03-22T12:07:46.340Z,59.20
2023-03-22T12:10:38.748Z,58.90
2023-03-22T12:13:23.461Z,59.15
2023-03-22T12:15:59.580Z,59.48
2023-03-22T12:18:36.273Z,59.01
2023-03-22T12:21:04.122Z,59.23
2023-03-22T12:23:37.282Z,59.48
2023-03-22T12:26:07.736Z,59.17
2023-03-22T12:28:40.723Z,59.36
2023-03-22T12:31:19.753Z,59.32
2023-03-22T12:33:52.320Z,58.30
2023-03-22T12:36:44.910Z,59.00
2023-03-22T12:39:46.378Z,58.10
2023-03-22T12:42:40.472Z,57.81
2023-03-22T12:45:18.623Z,57.54
2023-03-22T12:47:58.777Z,58.85
2023-03-22T12:50:50.380Z,58.07
2023-03-22T12:53:20.558Z,57.70
2023-03-22T12:55:51.119Z,58.13
2023-03-22T12:58:25.997Z,57.16
2023-03-22T13:01:00.557Z,58.46
2023-03-22T13:03:44.648Z,57.19
2023-03-22T13:06:33.655Z,57.60
2023-03-22T13:09:21.482Z,57.11
2023-03-22T13:12:15.427Z,57.30
2023-03-22T13:15:31.648Z,57.74
2023-03-22T13:18:40.411Z,58.76
2023-03-22T13:21:29.517Z,58.47
2023-03-22T13:24:05.401Z,58.18
2023-03-22T13:26:47.807Z,58.93
2023-03-22T13:29:42.040Z,59.31
2023-03-22T13:32:33.933Z,59.22
2023-03-22T13:35:02.289Z,58.83
2023-03-22T13:37:45.433Z,59.11
2023-03-22T13:40:26.265Z,58.90
2023-03-22T13:42:54.582Z,58.61
2023-03-22T13:45:32.176Z,59.30
2023-03-22T13:48:27.979Z,59.63
2023-03-22T13:50:58.561Z,60.27
2023-03-22T13:53:34.653Z,60.19
2023-03-22T13:56:05.950Z,60.00
2023-03-22T13:58:48.420Z,60.72
2023-03-22T14:01:35.255Z,60.99
2023-03-22T14:04:10.941Z,61.20
2023-03-22T14:06:59.415Z,61.10
2023-03-22T14:09:49.756Z,60.25
2023-03-22T14:12:45.557Z,60.65
2023-03-22T14:15:21.299Z,60.89
2023-03-22T14:18:03.681Z,61.03
2023-03-22T14:20:42.860Z,60.94
